sensor_id;sensor_type;location;lat;lon;timestamp;P1;durP1;ratioP1;P2;durP2;ratioP2
2618;SDS011;1319;52.346;13.096;2022-09-29T00:00:22;7.77;;;5.87;;
2618;SDS011;1319;52.346;13.096;2022-09-29T00:02:47;8.27;;;5.93;;
2618;SDS011;1319;52.346;13.096;2022-09-29T00:05:13;10.73;;;6.43;;
2618;SDS011;1319;52.346;13.096;2022-09-29T00:07:38;10.40;;;6.50;;
2618;SDS011;1319;52.346;13.096;2022-09-29T00:10:03;11.00;;;6.77;;
2618;SDS011;1319;52.346;13.096;2022-09-29T00:12:29;8.27;;;6.33;;
2618;SDS011;1319;52.346;13.096;2022-09-29T00:14:54;10.43;;;6.63;;
2618;SDS011;1319;52.346;13.096;2022-09-29T00:17:19;8.90;;;6.70;;
2618;SDS011;1319;52.346;13.096;2022-09-29T00:19:44;14.47;;;7.53;;
2618;SDS011;1319;52.346;13.096;2022-09-29T00:22:10;14.77;;;7.90;;
2618;SDS011;1319;52.346;13.096;2022-09-29T00:24:35;19.03;;;7.70;;
2618;SDS011;1319;52.346;13.096;2022-09-29T00:27:00;16.57;;;7.97;;
2618;SDS011;1319;52.346;13.096;2022-09-29T00:29:26;12.50;;;7.83;;
2618;SDS011;1319;52.346;13.096;2022-09-29T00:31:51;14.50;;;8.00;;
2618;SDS011;1319;52.346;13.096;2022-09-29T00:34:16;14.67;;;8.10;;
2618;SDS011;1319;52.346;13.096;2022-09-29T00:36:41;14.93;;;8.53;;
2618;SDS011;1319;52.346;13.096;2022-09-29T00:39:07;15.53;;;7.70;;
2618;SDS011;1319;52.346;13.096;2022-09-29T00:41:33;16.30;;;8.13;;
2618;SDS011;1319;52.346;13.096;2022-09-29T00:44:00;17.40;;;8.60;;
2618;SDS011;1319;52.346;13.096;2022-09-29T00:48:54;15.97;;;8.87;;
2618;SDS011;1319;52.346;13.096;2022-09-29T00:51:20;17.87;;;8.50;;
2618;SDS011;1319;52.346;13.096;2022-09-29T00:53:46;14.90;;;8.60;;
2618;SDS011;1319;52.346;13.096;2022-09-29T00:56:12;17.93;;;8.83;;
2618;SDS011;1319;52.346;13.096;2022-09-29T00:58:48;18.03;;;8.93;;
2618;SDS011;1319;52.346;13.096;2022-09-29T01:01:19;21.40;;;8.80;;
2618;SDS011;1319;52.346;13.096;2022-09-29T01:03:44;25.03;;;9.43;;
2618;SDS011;1319;52.346;13.096;2022-09-29T01:06:14;17.43;;;8.50;;
2618;SDS011;1319;52.346;13.096;2022-09-29T01:11:12;20.43;;;9.43;;
2618;SDS011;1319;52.346;13.096;2022-09-29T01:13:38;20.73;;;9.83;;
2618;SDS011;1319;52.346;13.096;2022-09-29T01:16:03;24.40;;;9.77;;
2618;SDS011;1319;52.346;13.096;2022-09-29T01:18:28;24.27;;;10.40;;
2618;SDS011;1319;52.346;13.096;2022-09-29T01:26:13;20.27;;;10.50;;
2618;SDS011;1319;52.346;13.096;2022-09-29T01:41:09;23.53;;;10.80;;
2618;SDS011;1319;52.346;13.096;2022-09-29T01:43:38;24.77;;;11.27;;
2618;SDS011;1319;52.346;13.096;2022-09-29T01:46:14;25.87;;;11.17;;
2618;SDS011;1319;52.346;13.096;2022-09-29T01:48:43;22.27;;;10.93;;
2618;SDS011;1319;52.346;13.096;2022-09-29T01:51:14;30.47;;;12.30;;
2618;SDS011;1319;52.346;13.096;2022-09-29T01:54:00;27.93;;;11.97;;
2618;SDS011;1319;52.346;13.096;2022-09-29T01:56:28;24.83;;;11.70;;
2618;SDS011;1319;52.346;13.096;2022-09-29T01:58:57;23.10;;;11.07;;
2618;SDS011;1319;52.346;13.096;2022-09-29T02:01:24;27.53;;;11.23;;
2618;SDS011;1319;52.346;13.096;2022-09-29T02:04:04;22.70;;;11.23;;
2618;SDS011;1319;52.346;13.096;2022-09-29T02:06:36;26.93;;;11.80;;
2618;SDS011;1319;52.346;13.096;2022-09-29T02:09:07;27.17;;;11.83;;
2618;SDS011;1319;52.346;13.096;2022-09-29T02:11:33;27.63;;;12.23;;
2618;SDS011;1319;52.346;13.096;2022-09-29T02:16:31;26.07;;;11.90;;
2618;SDS011;1319;52.346;13.096;2022-09-29T02:19:02;25.33;;;11.30;;
2618;SDS011;1319;52.346;13.096;2022-09-29T02:21:29;25.43;;;11.90;;
2618;SDS011;1319;52.346;13.096;2022-09-29T02:23:54;22.60;;;10.67;;
2618;SDS011;1319;52.346;13.096;2022-09-29T02:26:20;23.93;;;11.47;;
2618;SDS011;1319;52.346;13.096;2022-09-29T02:28:47;23.70;;;11.50;;
2618;SDS011;1319;52.346;13.096;2022-09-29T02:31:12;22.87;;;11.27;;
2618;SDS011;1319;52.346;13.096;2022-09-29T02:33:38;26.50;;;11.90;;
2618;SDS011;1319;52.346;13.096;2022-09-29T02:38:34;26.53;;;11.97;;
2618;SDS011;1319;52.346;13.096;2022-09-29T02:49:04;22.90;;;11.73;;
2618;SDS011;1319;52.346;13.096;2022-09-29T02:51:41;24.00;;;11.87;;
2618;SDS011;1319;52.346;13.096;2022-09-29T02:56:51;24.47;;;11.27;;
2618;SDS011;1319;52.346;13.096;2022-09-29T02:59:55;25.33;;;12.30;;
2618;SDS011;1319;52.346;13.096;2022-09-29T03:02:10;24.93;;;12.10;;
2618;SDS011;1319;52.346;13.096;2022-09-29T03:04:35;27.73;;;11.57;;
2618;SDS011;1319;52.346;13.096;2022-09-29T03:07:00;20.40;;;10.90;;
2618;SDS011;1319;52.346;13.096;2022-09-29T03:09:25;24.33;;;11.80;;
2618;SDS011;1319;52.346;13.096;2022-09-29T03:11:51;22.10;;;11.33;;
2618;SDS011;1319;52.346;13.096;2022-09-29T03:14:16;24.10;;;11.83;;
2618;SDS011;1319;52.346;13.096;2022-09-29T03:16:54;24.63;;;11.43;;
2618;SDS011;1319;52.346;13.096;2022-09-29T03:19:19;20.90;;;10.97;;
2618;SDS011;1319;52.346;13.096;2022-09-29T03:21:44;21.23;;;10.97;;
2618;SDS011;1319;52.346;13.096;2022-09-29T03:24:09;25.13;;;12.23;;
2618;SDS011;1319;52.346;13.096;2022-09-29T03:26:34;25.03;;;11.80;;
2618;SDS011;1319;52.346;13.096;2022-09-29T03:29:00;22.77;;;11.97;;
2618;SDS011;1319;52.346;13.096;2022-09-29T03:31:25;23.90;;;11.57;;
2618;SDS011;1319;52.346;13.096;2022-09-29T03:33:50;24.83;;;11.70;;
2618;SDS011;1319;52.346;13.096;2022-09-29T03:36:16;27.97;;;12.73;;
2618;SDS011;1319;52.346;13.096;2022-09-29T03:38:41;25.63;;;11.97;;
2618;SDS011;1319;52.346;13.096;2022-09-29T03:41:08;22.33;;;12.23;;
2618;SDS011;1319;52.346;13.096;2022-09-29T03:43:33;27.03;;;12.67;;
2618;SDS011;1319;52.346;13.096;2022-09-29T03:45:58;25.00;;;12.80;;
2618;SDS011;1319;52.346;13.096;2022-09-29T03:48:23;26.93;;;11.97;;
2618;SDS011;1319;52.346;13.096;2022-09-29T03:50:49;27.53;;;12.50;;
2618;SDS011;1319;52.346;13.096;2022-09-29T03:53:15;25.33;;;12.70;;
2618;SDS011;1319;52.346;13.096;2022-09-29T03:55:44;25.13;;;12.33;;
2618;SDS011;1319;52.346;13.096;2022-09-29T03:58:10;24.43;;;12.27;;
2618;SDS011;1319;52.346;13.096;2022-09-29T04:00:35;22.43;;;11.80;;
2618;SDS011;1319;52.346;13.096;2022-09-29T04:03:00;26.57;;;12.20;;
2618;SDS011;1319;52.346;13.096;2022-09-29T04:05:25;23.23;;;11.70;;
2618;SDS011;1319;52.346;13.096;2022-09-29T04:07:53;22.87;;;12.53;;
2618;SDS011;1319;52.346;13.096;2022-09-29T04:10:18;24.70;;;12.07;;
2618;SDS011;1319;52.346;13.096;2022-09-29T04:12:43;30.60;;;12.70;;
2618;SDS011;1319;52.346;13.096;2022-09-29T04:15:08;22.33;;;11.97;;
2618;SDS011;1319;52.346;13.096;2022-09-29T04:17:34;25.13;;;13.00;;
2618;SDS011;1319;52.346;13.096;2022-09-29T04:19:59;25.63;;;12.77;;
2618;SDS011;1319;52.346;13.096;2022-09-29T04:22:24;26.27;;;12.77;;
2618;SDS011;1319;52.346;13.096;2022-09-29T04:24:49;24.77;;;12.40;;
2618;SDS011;1319;52.346;13.096;2022-09-29T04:27:16;25.63;;;12.87;;
2618;SDS011;1319;52.346;13.096;2022-09-29T04:29:41;29.40;;;12.83;;
2618;SDS011;1319;52.346;13.096;2022-09-29T04:32:07;26.47;;;13.23;;
2618;SDS011;1319;52.346;13.096;2022-09-29T04:34:32;25.80;;;12.80;;
2618;SDS011;1319;52.346;13.096;2022-09-29T04:36:58;25.43;;;12.60;;
2618;SDS011;1319;52.346;13.096;2022-09-29T04:39:23;27.97;;;12.87;;
2618;SDS011;1319;52.346;13.096;2022-09-29T04:41:48;27.00;;;12.97;;
2618;SDS011;1319;52.346;13.096;2022-09-29T04:44:13;26.80;;;13.10;;
2618;SDS011;1319;52.346;13.096;2022-09-29T04:46:39;27.33;;;13.60;;
2618;SDS011;1319;52.346;13.096;2022-09-29T04:49:04;37.13;;;13.57;;
2618;SDS011;1319;52.346;13.096;2022-09-29T04:51:29;25.20;;;13.27;;
2618;SDS011;1319;52.346;13.096;2022-09-29T04:53:56;27.17;;;12.93;;
2618;SDS011;1319;52.346;13.096;2022-09-29T04:56:21;26.40;;;13.00;;
2618;SDS011;1319;52.346;13.096;2022-09-29T04:58:47;26.67;;;13.53;;
2618;SDS011;1319;52.346;13.096;2022-09-29T05:01:12;24.33;;;13.13;;
2618;SDS011;1319;52.346;13.096;2022-09-29T05:03:37;28.00;;;13.20;;
2618;SDS011;1319;52.346;13.096;2022-09-29T05:06:03;27.73;;;13.93;;
2618;SDS011;1319;52.346;13.096;2022-09-29T05:08:28;29.10;;;13.67;;
2618;SDS011;1319;52.346;13.096;2022-09-29T05:10:53;28.60;;;13.30;;
2618;SDS011;1319;52.346;13.096;2022-09-29T05:13:19;27.67;;;13.00;;
2618;SDS011;1319;52.346;13.096;2022-09-29T05:15:44;28.47;;;13.87;;
2618;SDS011;1319;52.346;13.096;2022-09-29T05:18:09;28.90;;;13.50;;
2618;SDS011;1319;52.346;13.096;2022-09-29T05:20:35;27.37;;;14.17;;
2618;SDS011;1319;52.346;13.096;2022-09-29T05:23:00;32.97;;;14.23;;
2618;SDS011;1319;52.346;13.096;2022-09-29T05:25:25;27.13;;;13.57;;
2618;SDS011;1319;52.346;13.096;2022-09-29T05:27:51;28.57;;;14.33;;
2618;SDS011;1319;52.346;13.096;2022-09-29T05:30:17;27.90;;;14.43;;
2618;SDS011;1319;52.346;13.096;2022-09-29T05:32:42;29.83;;;13.83;;
2618;SDS011;1319;52.346;13.096;2022-09-29T05:35:08;27.70;;;13.70;;
2618;SDS011;1319;52.346;13.096;2022-09-29T05:37:33;29.37;;;13.63;;
2618;SDS011;1319;52.346;13.096;2022-09-29T05:39:58;29.20;;;13.73;;
2618;SDS011;1319;52.346;13.096;2022-09-29T05:42:24;29.73;;;13.80;;
2618;SDS011;1319;52.346;13.096;2022-09-29T05:44:49;29.30;;;13.77;;
2618;SDS011;1319;52.346;13.096;2022-09-29T05:47:15;29.00;;;13.50;;
2618;SDS011;1319;52.346;13.096;2022-09-29T05:49:40;38.17;;;19.40;;
2618;SDS011;1319;52.346;13.096;2022-09-29T05:52:06;37.70;;;19.30;;
2618;SDS011;1319;52.346;13.096;2022-09-29T05:54:31;38.23;;;19.23;;
2618;SDS011;1319;52.346;13.096;2022-09-29T05:56:56;35.37;;;16.87;;
2618;SDS011;1319;52.346;13.096;2022-09-29T05:59:21;37.23;;;18.63;;
2618;SDS011;1319;52.346;13.096;2022-09-29T06:01:47;40.07;;;20.53;;
2618;SDS011;1319;52.346;13.096;2022-09-29T06:04:12;40.07;;;20.00;;
2618;SDS011;1319;52.346;13.096;2022-09-29T06:06:37;37.77;;;17.73;;
2618;SDS011;1319;52.346;13.096;2022-09-29T06:09:04;34.93;;;16.57;;
2618;SDS011;1319;52.346;13.096;2022-09-29T06:11:30;32.00;;;16.13;;
2618;SDS011;1319;52.346;13.096;2022-09-29T06:13:58;28.57;;;15.10;;
2618;SDS011;1319;52.346;13.096;2022-09-29T06:16:25;25.80;;;14.40;;
2618;SDS011;1319;52.346;13.096;2022-09-29T06:18:51;32.70;;;15.20;;
2618;SDS011;1319;52.346;13.096;2022-09-29T06:21:17;31.40;;;15.63;;
2618;SDS011;1319;52.346;13.096;2022-09-29T06:23:43;31.23;;;15.47;;
2618;SDS011;1319;52.346;13.096;2022-09-29T06:26:09;33.17;;;15.37;;
2618;SDS011;1319;52.346;13.096;2022-09-29T06:28:35;30.17;;;15.47;;
2618;SDS011;1319;52.346;13.096;2022-09-29T06:31:08;35.67;;;15.67;;
2618;SDS011;1319;52.346;13.096;2022-09-29T06:33:34;35.13;;;16.37;;
2618;SDS011;1319;52.346;13.096;2022-09-29T06:36:05;36.93;;;17.37;;
2618;SDS011;1319;52.346;13.096;2022-09-29T06:38:50;31.27;;;15.70;;
2618;SDS011;1319;52.346;13.096;2022-09-29T06:41:15;32.60;;;15.67;;
2618;SDS011;1319;52.346;13.096;2022-09-29T06:43:41;31.17;;;16.17;;
2618;SDS011;1319;52.346;13.096;2022-09-29T06:46:06;35.57;;;17.30;;
2618;SDS011;1319;52.346;13.096;2022-09-29T06:48:31;31.23;;;16.27;;
2618;SDS011;1319;52.346;13.096;2022-09-29T06:50:56;32.30;;;16.40;;
2618;SDS011;1319;52.346;13.096;2022-09-29T06:53:22;30.80;;;15.50;;
2618;SDS011;1319;52.346;13.096;2022-09-29T06:55:54;30.63;;;16.37;;
2618;SDS011;1319;52.346;13.096;2022-09-29T06:58:20;31.40;;;15.97;;
2618;SDS011;1319;52.346;13.096;2022-09-29T07:00:46;32.10;;;16.37;;
2618;SDS011;1319;52.346;13.096;2022-09-29T07:03:11;30.60;;;16.47;;
2618;SDS011;1319;52.346;13.096;2022-09-29T07:05:36;27.57;;;14.97;;
2618;SDS011;1319;52.346;13.096;2022-09-29T07:08:01;27.50;;;15.77;;
2618;SDS011;1319;52.346;13.096;2022-09-29T07:10:28;28.17;;;16.33;;
2618;SDS011;1319;52.346;13.096;2022-09-29T07:12:54;28.17;;;15.60;;
2618;SDS011;1319;52.346;13.096;2022-09-29T07:15:19;30.80;;;14.97;;
2618;SDS011;1319;52.346;13.096;2022-09-29T07:17:44;28.13;;;14.93;;
2618;SDS011;1319;52.346;13.096;2022-09-29T07:20:10;29.20;;;15.07;;
2618;SDS011;1319;52.346;13.096;2022-09-29T07:22:35;25.60;;;14.40;;
2618;SDS011;1319;52.346;13.096;2022-09-29T07:25:00;24.13;;;14.67;;
2618;SDS011;1319;52.346;13.096;2022-09-29T07:27:26;25.77;;;14.87;;
2618;SDS011;1319;52.346;13.096;2022-09-29T07:29:51;28.33;;;15.90;;
2618;SDS011;1319;52.346;13.096;2022-09-29T07:32:17;26.20;;;15.00;;
2618;SDS011;1319;52.346;13.096;2022-09-29T07:34:42;25.63;;;14.73;;
2618;SDS011;1319;52.346;13.096;2022-09-29T07:37:08;26.90;;;15.03;;
2618;SDS011;1319;52.346;13.096;2022-09-29T07:39:33;22.83;;;13.80;;
2618;SDS011;1319;52.346;13.096;2022-09-29T07:41:58;24.13;;;14.20;;
2618;SDS011;1319;52.346;13.096;2022-09-29T07:44:24;22.90;;;13.73;;
2618;SDS011;1319;52.346;13.096;2022-09-29T07:46:49;24.67;;;14.20;;
2618;SDS011;1319;52.346;13.096;2022-09-29T07:49:14;23.30;;;13.50;;
2618;SDS011;1319;52.346;13.096;2022-09-29T07:51:40;29.20;;;14.20;;
2618;SDS011;1319;52.346;13.096;2022-09-29T07:54:05;24.33;;;13.90;;
2618;SDS011;1319;52.346;13.096;2022-09-29T07:56:31;29.27;;;14.17;;
2618;SDS011;1319;52.346;13.096;2022-09-29T07:58:57;25.03;;;13.63;;
2618;SDS011;1319;52.346;13.096;2022-09-29T08:01:22;26.47;;;14.13;;
2618;SDS011;1319;52.346;13.096;2022-09-29T08:03:48;26.53;;;14.97;;
2618;SDS011;1319;52.346;13.096;2022-09-29T08:06:14;25.00;;;14.30;;
2618;SDS011;1319;52.346;13.096;2022-09-29T08:08:40;24.40;;;13.63;;
2618;SDS011;1319;52.346;13.096;2022-09-29T08:11:07;21.63;;;14.10;;
2618;SDS011;1319;52.346;13.096;2022-09-29T08:13:33;21.63;;;13.10;;
2618;SDS011;1319;52.346;13.096;2022-09-29T08:16:00;23.27;;;13.00;;
2618;SDS011;1319;52.346;13.096;2022-09-29T08:18:28;21.50;;;13.50;;
2618;SDS011;1319;52.346;13.096;2022-09-29T08:20:54;22.90;;;12.97;;
2618;SDS011;1319;52.346;13.096;2022-09-29T08:23:20;22.57;;;13.70;;
2618;SDS011;1319;52.346;13.096;2022-09-29T08:25:45;19.53;;;13.00;;
2618;SDS011;1319;52.346;13.096;2022-09-29T08:28:10;20.73;;;12.17;;
2618;SDS011;1319;52.346;13.096;2022-09-29T08:30:35;21.47;;;14.23;;
2618;SDS011;1319;52.346;13.096;2022-09-29T08:33:02;21.20;;;12.50;;
2618;SDS011;1319;52.346;13.096;2022-09-29T08:35:28;21.83;;;12.53;;
2618;SDS011;1319;52.346;13.096;2022-09-29T08:37:53;21.97;;;13.90;;
2618;SDS011;1319;52.346;13.096;2022-09-29T08:40:19;21.77;;;13.13;;
2618;SDS011;1319;52.346;13.096;2022-09-29T08:45:29;20.40;;;12.57;;
2618;SDS011;1319;52.346;13.096;2022-09-29T08:48:00;20.13;;;12.77;;
2618;SDS011;1319;52.346;13.096;2022-09-29T08:52:56;19.93;;;12.67;;
2618;SDS011;1319;52.346;13.096;2022-09-29T08:55:37;18.37;;;12.47;;
2618;SDS011;1319;52.346;13.096;2022-09-29T08:58:08;19.07;;;12.43;;
2618;SDS011;1319;52.346;13.096;2022-09-29T09:00:37;19.33;;;12.50;;
2618;SDS011;1319;52.346;13.096;2022-09-29T09:13:22;13.80;;;10.50;;
2618;SDS011;1319;52.346;13.096;2022-09-29T09:26:02;10.00;;;8.50;;
2618;SDS011;1319;52.346;13.096;2022-09-29T09:30:57;11.60;;;9.70;;
2618;SDS011;1319;52.346;13.096;2022-09-29T09:36:07;11.50;;;9.02;;
2618;SDS011;1319;52.346;13.096;2022-09-29T09:38:43;9.35;;;8.32;;
2618;SDS011;1319;52.346;13.096;2022-09-29T09:41:12;8.85;;;7.70;;
2618;SDS011;1319;52.346;13.096;2022-09-29T09:43:40;8.57;;;7.68;;
2618;SDS011;1319;52.346;13.096;2022-09-29T09:48:40;8.20;;;7.35;;
2618;SDS011;1319;52.346;13.096;2022-09-29T09:51:20;10.35;;;7.45;;
2618;SDS011;1319;52.346;13.096;2022-09-29T09:53:48;7.55;;;6.70;;
2618;SDS011;1319;52.346;13.096;2022-09-29T09:56:30;7.65;;;6.82;;
2618;SDS011;1319;52.346;13.096;2022-09-29T10:01:29;7.15;;;6.47;;
2618;SDS011;1319;52.346;13.096;2022-09-29T10:03:54;8.27;;;6.70;;
2618;SDS011;1319;52.346;13.096;2022-09-29T10:06:21;6.00;;;5.47;;
2618;SDS011;1319;52.346;13.096;2022-09-29T10:08:46;6.75;;;6.15;;
2618;SDS011;1319;52.346;13.096;2022-09-29T10:11:20;6.75;;;5.60;;
2618;SDS011;1319;52.346;13.096;2022-09-29T10:13:46;8.52;;;5.88;;
2618;SDS011;1319;52.346;13.096;2022-09-29T10:16:14;6.35;;;4.85;;
2618;SDS011;1319;52.346;13.096;2022-09-29T10:18:47;5.90;;;5.30;;
2618;SDS011;1319;52.346;13.096;2022-09-29T10:23:50;8.45;;;4.47;;
2618;SDS011;1319;52.346;13.096;2022-09-29T10:26:17;6.43;;;4.68;;
2618;SDS011;1319;52.346;13.096;2022-09-29T10:28:51;5.32;;;4.55;;
2618;SDS011;1319;52.346;13.096;2022-09-29T10:31:35;6.47;;;4.60;;
2618;SDS011;1319;52.346;13.096;2022-09-29T10:34:22;4.35;;;3.95;;
2618;SDS011;1319;52.346;13.096;2022-09-29T10:36:53;4.28;;;3.88;;
2618;SDS011;1319;52.346;13.096;2022-09-29T10:42:14;5.15;;;4.38;;
2618;SDS011;1319;52.346;13.096;2022-09-29T10:44:39;3.85;;;3.58;;
2618;SDS011;1319;52.346;13.096;2022-09-29T10:47:06;4.15;;;3.85;;
2618;SDS011;1319;52.346;13.096;2022-09-29T10:49:31;5.55;;;4.68;;
2618;SDS011;1319;52.346;13.096;2022-09-29T10:51:58;4.78;;;4.38;;
2618;SDS011;1319;52.346;13.096;2022-09-29T10:54:25;5.10;;;4.60;;
2618;SDS011;1319;52.346;13.096;2022-09-29T10:56:50;3.95;;;3.35;;
2618;SDS011;1319;52.346;13.096;2022-09-29T10:59:16;4.50;;;4.10;;
2618;SDS011;1319;52.346;13.096;2022-09-29T11:01:46;3.20;;;2.90;;
2618;SDS011;1319;52.346;13.096;2022-09-29T11:06:51;5.32;;;4.82;;
2618;SDS011;1319;52.346;13.096;2022-09-29T11:14:27;6.68;;;4.50;;
2618;SDS011;1319;52.346;13.096;2022-09-29T11:16:57;4.75;;;4.35;;
2618;SDS011;1319;52.346;13.096;2022-09-29T11:19:23;5.22;;;4.72;;
2618;SDS011;1319;52.346;13.096;2022-09-29T11:37:20;4.30;;;3.90;;
2618;SDS011;1319;52.346;13.096;2022-09-29T11:42:55;5.72;;;4.05;;
2618;SDS011;1319;52.346;13.096;2022-09-29T11:45:31;4.38;;;3.97;;
2618;SDS011;1319;52.346;13.096;2022-09-29T11:50:51;4.10;;;3.80;;
2618;SDS011;1319;52.346;13.096;2022-09-29T12:00:56;5.60;;;3.30;;
2618;SDS011;1319;52.346;13.096;2022-09-29T12:03:34;4.10;;;3.80;;
2618;SDS011;1319;52.346;13.096;2022-09-29T12:18:49;3.67;;;3.38;;
2618;SDS011;1319;52.346;13.096;2022-09-29T12:21:16;3.42;;;3.20;;
2618;SDS011;1319;52.346;13.096;2022-09-29T12:23:45;3.72;;;3.38;;
2618;SDS011;1319;52.346;13.096;2022-09-29T12:26:16;4.30;;;3.00;;
2618;SDS011;1319;52.346;13.096;2022-09-29T12:28:53;3.58;;;2.78;;
2618;SDS011;1319;52.346;13.096;2022-09-29T12:33:49;4.03;;;2.45;;
2618;SDS011;1319;52.346;13.096;2022-09-29T12:41:46;2.55;;;2.35;;
2618;SDS011;1319;52.346;13.096;2022-09-29T12:44:18;6.07;;;2.60;;
2618;SDS011;1319;52.346;13.096;2022-09-29T12:46:46;2.70;;;2.50;;
2618;SDS011;1319;52.346;13.096;2022-09-29T12:49:33;2.25;;;2.10;;
2618;SDS011;1319;52.346;13.096;2022-09-29T12:52:01;2.20;;;2.10;;
2618;SDS011;1319;52.346;13.096;2022-09-29T12:54:31;2.28;;;1.90;;
2618;SDS011;1319;52.346;13.096;2022-09-29T12:57:20;1.90;;;1.80;;
2618;SDS011;1319;52.346;13.096;2022-09-29T13:02:39;2.10;;;2.00;;
2618;SDS011;1319;52.346;13.096;2022-09-29T13:07:43;1.58;;;1.58;;
2618;SDS011;1319;52.346;13.096;2022-09-29T13:10:32;1.63;;;1.60;;
2618;SDS011;1319;52.346;13.096;2022-09-29T13:28:47;5.65;;;1.80;;
2618;SDS011;1319;52.346;13.096;2022-09-29T13:31:14;1.67;;;1.45;;
2618;SDS011;1319;52.346;13.096;2022-09-29T13:33:45;1.80;;;1.70;;
2618;SDS011;1319;52.346;13.096;2022-09-29T13:36:13;1.70;;;1.65;;
2618;SDS011;1319;52.346;13.096;2022-09-29T13:38:45;1.90;;;1.80;;
2618;SDS011;1319;52.346;13.096;2022-09-29T13:48:52;1.50;;;1.40;;
2618;SDS011;1319;52.346;13.096;2022-09-29T13:51:41;1.83;;;1.73;;
2618;SDS011;1319;52.346;13.096;2022-09-29T13:54:18;1.50;;;1.50;;
2618;SDS011;1319;52.346;13.096;2022-09-29T13:56:46;1.90;;;1.80;;
2618;SDS011;1319;52.346;13.096;2022-09-29T13:59:13;1.60;;;1.50;;
2618;SDS011;1319;52.346;13.096;2022-09-29T14:01:39;1.70;;;1.60;;
2618;SDS011;1319;52.346;13.096;2022-09-29T14:06:49;1.70;;;1.60;;
2618;SDS011;1319;52.346;13.096;2022-09-29T14:09:15;2.28;;;1.83;;
2618;SDS011;1319;52.346;13.096;2022-09-29T14:11:42;1.67;;;1.63;;
2618;SDS011;1319;52.346;13.096;2022-09-29T14:16:56;1.80;;;1.70;;
2618;SDS011;1319;52.346;13.096;2022-09-29T14:19:36;3.23;;;1.70;;
2618;SDS011;1319;52.346;13.096;2022-09-29T14:24:47;1.70;;;1.60;;
2618;SDS011;1319;52.346;13.096;2022-09-29T14:35:05;1.80;;;1.70;;
2618;SDS011;1319;52.346;13.096;2022-09-29T14:37:37;1.57;;;1.40;;
2618;SDS011;1319;52.346;13.096;2022-09-29T14:40:05;1.70;;;1.60;;
2618;SDS011;1319;52.346;13.096;2022-09-29T14:43:00;1.40;;;1.40;;
2618;SDS011;1319;52.346;13.096;2022-09-29T14:45:25;2.73;;;1.67;;
2618;SDS011;1319;52.346;13.096;2022-09-29T14:48:13;1.70;;;1.60;;
2618;SDS011;1319;52.346;13.096;2022-09-29T14:51:11;2.37;;;1.50;;
2618;SDS011;1319;52.346;13.096;2022-09-29T14:54:20;2.23;;;1.53;;
2618;SDS011;1319;52.346;13.096;2022-09-29T14:59:28;1.50;;;1.50;;
2618;SDS011;1319;52.346;13.096;2022-09-29T15:04:29;1.70;;;1.60;;
2618;SDS011;1319;52.346;13.096;2022-09-29T15:06:55;2.70;;;2.00;;
2618;SDS011;1319;52.346;13.096;2022-09-29T15:09:24;1.50;;;1.50;;
2618;SDS011;1319;52.346;13.096;2022-09-29T15:11:50;1.80;;;1.70;;
2618;SDS011;1319;52.346;13.096;2022-09-29T15:21:54;1.70;;;1.60;;
2618;SDS011;1319;52.346;13.096;2022-09-29T15:26:48;3.43;;;1.70;;
2618;SDS011;1319;52.346;13.096;2022-09-29T15:29:14;1.90;;;1.80;;
2618;SDS011;1319;52.346;13.096;2022-09-29T15:31:42;1.90;;;1.80;;
2618;SDS011;1319;52.346;13.096;2022-09-29T15:34:08;2.40;;;2.20;;
2618;SDS011;1319;52.346;13.096;2022-09-29T15:36:37;2.33;;;1.90;;
2618;SDS011;1319;52.346;13.096;2022-09-29T15:39:12;1.50;;;1.43;;
2618;SDS011;1319;52.346;13.096;2022-09-29T15:41:55;1.53;;;1.43;;
2618;SDS011;1319;52.346;13.096;2022-09-29T15:44:25;2.23;;;1.70;;
2618;SDS011;1319;52.346;13.096;2022-09-29T15:46:55;2.90;;;1.93;;
2618;SDS011;1319;52.346;13.096;2022-09-29T15:49:21;1.90;;;1.80;;
2618;SDS011;1319;52.346;13.096;2022-09-29T15:51:57;1.70;;;1.60;;
2618;SDS011;1319;52.346;13.096;2022-09-29T15:54:23;1.80;;;1.70;;
2618;SDS011;1319;52.346;13.096;2022-09-29T15:56:49;1.80;;;1.70;;
2618;SDS011;1319;52.346;13.096;2022-09-29T16:02:05;1.90;;;1.80;;
2618;SDS011;1319;52.346;13.096;2022-09-29T16:04:37;1.83;;;1.70;;
2618;SDS011;1319;52.346;13.096;2022-09-29T16:07:02;1.77;;;1.67;;
2618;SDS011;1319;52.346;13.096;2022-09-29T16:09:27;1.90;;;1.80;;
2618;SDS011;1319;52.346;13.096;2022-09-29T16:11:53;2.00;;;1.80;;
2618;SDS011;1319;52.346;13.096;2022-09-29T16:14:25;1.90;;;1.80;;
2618;SDS011;1319;52.346;13.096;2022-09-29T16:16:52;3.17;;;1.87;;
2618;SDS011;1319;52.346;13.096;2022-09-29T16:19:28;2.00;;;1.80;;
2618;SDS011;1319;52.346;13.096;2022-09-29T16:21:55;2.87;;;2.67;;
2618;SDS011;1319;52.346;13.096;2022-09-29T16:24:27;3.40;;;3.10;;
2618;SDS011;1319;52.346;13.096;2022-09-29T16:26:54;2.30;;;2.17;;
2618;SDS011;1319;52.346;13.096;2022-09-29T16:29:27;3.53;;;2.70;;
2618;SDS011;1319;52.346;13.096;2022-09-29T16:31:53;2.70;;;2.50;;
2618;SDS011;1319;52.346;13.096;2022-09-29T16:36:46;3.37;;;3.00;;
2618;SDS011;1319;52.346;13.096;2022-09-29T16:39:12;3.10;;;2.90;;
2618;SDS011;1319;52.346;13.096;2022-09-29T16:41:38;5.63;;;3.17;;
2618;SDS011;1319;52.346;13.096;2022-09-29T16:46:40;2.93;;;2.73;;
2618;SDS011;1319;52.346;13.096;2022-09-29T16:49:10;5.53;;;2.50;;
2618;SDS011;1319;52.346;13.096;2022-09-29T16:51:39;3.40;;;3.10;;
2618;SDS011;1319;52.346;13.096;2022-09-29T16:54:07;3.90;;;2.40;;
2618;SDS011;1319;52.346;13.096;2022-09-29T16:56:35;5.27;;;3.27;;
2618;SDS011;1319;52.346;13.096;2022-09-29T16:59:02;3.60;;;3.00;;
2618;SDS011;1319;52.346;13.096;2022-09-29T17:01:28;4.10;;;3.10;;
2618;SDS011;1319;52.346;13.096;2022-09-29T17:03:53;4.50;;;3.57;;
2618;SDS011;1319;52.346;13.096;2022-09-29T17:06:18;7.83;;;4.37;;
2618;SDS011;1319;52.346;13.096;2022-09-29T17:08:44;7.60;;;5.23;;
2618;SDS011;1319;52.346;13.096;2022-09-29T17:11:09;8.37;;;5.47;;
2618;SDS011;1319;52.346;13.096;2022-09-29T17:13:34;7.40;;;6.00;;
2618;SDS011;1319;52.346;13.096;2022-09-29T17:15:59;7.20;;;5.70;;
2618;SDS011;1319;52.346;13.096;2022-09-29T17:18:25;8.60;;;5.80;;
2618;SDS011;1319;52.346;13.096;2022-09-29T17:20:51;7.40;;;5.23;;
2618;SDS011;1319;52.346;13.096;2022-09-29T17:23:16;7.53;;;4.67;;
2618;SDS011;1319;52.346;13.096;2022-09-29T17:25:43;6.77;;;4.67;;
2618;SDS011;1319;52.346;13.096;2022-09-29T17:28:13;5.70;;;4.57;;
2618;SDS011;1319;52.346;13.096;2022-09-29T17:30:43;4.30;;;3.90;;
2618;SDS011;1319;52.346;13.096;2022-09-29T17:33:09;7.67;;;4.00;;
2618;SDS011;1319;52.346;13.096;2022-09-29T17:35:37;6.13;;;4.03;;
2618;SDS011;1319;52.346;13.096;2022-09-29T17:38:03;4.60;;;4.17;;
2618;SDS011;1319;52.346;13.096;2022-09-29T17:43:06;3.70;;;3.40;;
2618;SDS011;1319;52.346;13.096;2022-09-29T17:45:32;4.17;;;3.07;;
2618;SDS011;1319;52.346;13.096;2022-09-29T17:48:01;9.93;;;3.00;;
2618;SDS011;1319;52.346;13.096;2022-09-29T17:52:54;3.27;;;2.97;;
2618;SDS011;1319;52.346;13.096;2022-09-29T17:55:19;4.90;;;2.90;;
2618;SDS011;1319;52.346;13.096;2022-09-29T17:57:47;3.10;;;2.90;;
2618;SDS011;1319;52.346;13.096;2022-09-29T18:02:39;3.77;;;2.80;;
2618;SDS011;1319;52.346;13.096;2022-09-29T18:05:04;2.87;;;2.67;;
2618;SDS011;1319;52.346;13.096;2022-09-29T18:07:29;3.70;;;2.93;;
2618;SDS011;1319;52.346;13.096;2022-09-29T18:09:55;4.67;;;2.90;;
2618;SDS011;1319;52.346;13.096;2022-09-29T18:12:20;4.90;;;3.13;;
2618;SDS011;1319;52.346;13.096;2022-09-29T18:14:45;2.90;;;2.70;;
2618;SDS011;1319;52.346;13.096;2022-09-29T18:17:10;2.83;;;2.63;;
2618;SDS011;1319;52.346;13.096;2022-09-29T18:19:36;2.90;;;2.67;;
2618;SDS011;1319;52.346;13.096;2022-09-29T18:22:04;2.80;;;2.60;;
2618;SDS011;1319;52.346;13.096;2022-09-29T18:24:30;3.10;;;2.90;;